EICK

Cork Airport

Cork, Ireland
METAR EICK 121000Z 11008KT 9999 FEW001 SCT018 BKN250 05/05 Q1013 NOSIG
Observed Flight Rules
Dec-12 @ 10:00 UTC (14 minutes ago) Visual Flight Rules
Wind Visibility Clouds
110° at 8 knots 10,000+ meters
  • Few at 100' AGL
  • Scattered at 1,800' AGL
  • Broken at 25,000' AGL
Temperatures Readings
Current 5°C / 41°F
Dewpoint 5°C / 41°F
Humidity 100%
Altimeter 29.91" Hg
Pressure 1013 hPa
Elevation 162
METAR EICK 121000Z 11008KT 9999 FEW001 SCT018 BKN250 05/05 Q1013 NOSIG
Observed Flight Rules
Dec-12 @ 10:00 UTC
(14 minutes ago)
VFR
Wind Visibility
110° at 8 knots 10,000+ meters
Clouds
  • Few at 100' AGL
  • Scattered at 1,800' AGL
  • Broken at 25,000' AGL
Temperature Dewpoint
5°C / 41°F 5°C / 41°F
Humidity Altimeter Pressure
100% 29.91" Hg 1013 hPa